Time;durP1;ratioP1;P1;durP2;ratioP2;P2;SDS_P1;SDS_P2;PMS_P1;PMS_P2;Temp;Humidity;BMP_temperature;BMP_pressure;BME280_temperature;BME280_humidity;BME280_pressure;Samples;Min_cycle;Max_cycle;Signal;HPM_P1;HPM_P2
2021/04/29 00:03:58;;;;;;;13.15;8.33;;;;;;;9.33;51.61;99771.27;714446;1199;114006;-72
2021/04/29 00:19:19;;;;;;;12.03;7.98;;;;;;;9.15;51.71;99756.25;714533;1200;113541;-71
2021/04/29 00:34:40;;;;;;;11.57;7.93;;;;;;;8.88;52.74;99745.66;714895;1203;113363;-72
2021/04/29 00:50:01;;;;;;;10.90;7.38;;;;;;;8.61;52.82;99747.16;714399;1176;113753;-72
2021/04/29 01:05:26;;;;;;;13.20;7.93;;;;;;;8.17;54.76;99757.90;713922;1177;113438;-73
2021/04/29 01:21:12;;;;;;;14.57;7.93;;;;;;;7.70;55.76;99741.89;714142;1177;114107;-73
2021/04/29 01:36:36;;;;;;;12.35;7.65;;;;;;;7.55;56.53;99725.72;714064;1199;114478;-72
2021/04/29 01:51:57;;;;;;;13.80;7.58;;;;;;;7.31;56.75;99719.84;714216;1202;113369;-72
2021/04/29 02:07:19;;;;;;;14.10;8.78;;;;;;;7.46;56.12;99701.25;714635;1199;113764;-72
2021/04/29 02:22:42;;;;;;;14.18;8.65;;;;;;;7.48;55.89;99705.38;715441;1199;113834;-72
2021/04/29 02:38:03;;;;;;;14.75;8.40;;;;;;;7.38;57.09;99701.89;714045;1199;113785;-72
2021/04/29 02:53:23;;;;;;;17.70;8.65;;;;;;;7.48;56.65;99694.94;715404;1190;113316;-71
2021/04/29 03:08:44;;;;;;;15.83;8.83;;;;;;;7.54;56.86;99690.98;715153;1199;114390;-73
2021/04/29 03:24:04;;;;;;;15.85;8.30;;;;;;;7.58;56.90;99688.94;714789;1199;114135;-74
2021/04/29 03:39:24;;;;;;;15.58;8.78;;;;;;;7.63;57.14;99697.20;714431;1199;114105;-73
2021/04/29 03:54:45;;;;;;;15.93;9.00;;;;;;;7.44;57.23;99683.11;714552;1175;114084;-72
2021/04/29 04:10:07;;;;;;;14.48;8.40;;;;;;;7.45;57.50;99671.69;714657;1199;113935;-73
2021/04/29 04:25:28;;;;;;;19.50;10.15;;;;;;;7.45;58.24;99663.86;716101;1202;114974;-73
2021/04/29 04:40:48;;;;;;;17.78;10.23;;;;;;;7.57;58.90;99661.17;714538;1199;114030;-73
2021/04/29 04:56:09;;;;;;;47.40;25.18;;;;;;;7.93;59.56;99651.96;714288;1198;113976;-73
2021/04/29 05:11:29;;;;;;;22.15;15.03;;;;;;;8.43;59.06;99647.63;716829;1165;113605;-73
2021/04/29 05:26:50;;;;;;;19.50;12.40;;;;;;;9.01;58.12;99641.55;714250;1193;113294;-74
2021/04/29 05:42:11;;;;;;;65.63;26.13;;;;;;;9.62;56.51;99642.89;713868;1193;114163;-77
2021/04/29 05:57:31;;;;;;;34.50;17.77;;;;;;;10.13;56.55;99650.33;714008;1199;113795;-77
2021/04/29 06:12:52;;;;;;;36.73;18.23;;;;;;;10.75;56.19;99634.70;714408;1203;114649;-75
2021/04/29 06:28:13;;;;;;;30.80;15.50;;;;;;;11.53;56.50;99634.85;714277;1177;113580;-77
2021/04/29 06:43:33;;;;;;;22.80;13.05;;;;;;;12.05;55.96;99624.23;714561;1203;114815;-78
2021/04/29 06:58:54;;;;;;;18.70;11.83;;;;;;;13.17;55.13;99615.84;714121;1200;114143;-77
2021/04/29 07:14:14;;;;;;;18.27;10.70;;;;;;;14.15;53.81;99601.41;714141;1200;114193;-76
2021/04/29 07:29:36;;;;;;;31.43;15.60;;;;;;;15.38;49.82;99568.80;714017;1206;115319;-77
2021/04/29 07:44:57;;;;;;;13.08;9.23;;;;;;;16.74;48.01;99546.94;713940;1202;114107;-78
2021/04/29 08:00:19;;;;;;;12.65;7.03;;;;;;;16.94;44.59;99539.14;713987;1177;113859;-76
2021/04/29 08:15:41;;;;;;;12.18;7.85;;;;;;;17.70;42.32;99532.94;713959;1199;113646;-78
2021/04/29 08:31:01;;;;;;;9.90;7.40;;;;;;;18.25;40.73;99529.36;713807;1199;113770;-77
2021/04/29 08:46:22;;;;;;;15.58;8.45;;;;;;;18.94;40.52;99498.86;723124;1177;113532;-77
2021/04/29 09:01:45;;;;;;;12.83;8.13;;;;;;;19.70;39.38;99493.80;715985;1200;113866;-77
2021/04/29 09:17:07;;;;;;;16.03;9.55;;;;;;;20.09;38.92;99477.81;714406;1200;113541;-77
2021/04/29 09:32:34;;;;;;;22.03;9.55;;;;;;;19.56;39.67;99469.14;714622;1202;114062;-77
2021/04/29 09:48:11;;;;;;;13.38;8.18;;;;;;;19.62;38.53;99460.31;714315;1199;114162;-76
2021/04/29 10:03:33;;;;;;;29.68;9.85;;;;;;;20.63;38.90;99440.83;715383;1200;114954;-74
2021/04/29 10:18:55;;;;;;;24.15;11.38;;;;;;;20.57;37.69;99429.19;714190;1203;113842;-74
2021/04/29 10:34:16;;;;;;;14.35;9.05;;;;;;;18.83;39.30;99406.47;714620;1200;115274;-75
2021/04/29 10:49:42;;;;;;;23.68;11.95;;;;;;;18.88;39.96;99403.20;715158;1200;115036;-74
2021/04/29 11:05:08;;;;;;;29.85;12.60;;;;;;;18.69;39.88;99379.16;714734;1177;113800;-74
2021/04/29 11:20:41;;;;;;;15.77;8.77;;;;;;;18.32;39.64;99368.26;714180;1200;114922;-74
2021/04/29 11:36:22;;;;;;;19.95;12.13;;;;;;;18.55;40.50;99345.71;714282;1200;113697;-82
2021/04/29 11:51:46;;;;;;;;;;;;;;;18.17;41.26;99331.31;714368;1207;114336;-76
2021/04/29 12:07:08;;;;;;;15.33;6.10;;;;;;;17.73;41.79;99315.04;716171;1199;100545;-77
2021/04/29 12:22:30;;;;;;;17.67;8.03;;;;;;;17.54;42.91;99321.17;721305;1199;113744;-78
2021/04/29 12:37:51;;;;;;;15.60;7.40;;;;;;;17.19;43.86;99316.06;720672;1199;113675;-76
2021/04/29 12:53:17;;;;;;;17.23;8.93;;;;;;;17.08;45.81;99312.98;715045;1200;113592;-76
2021/04/29 13:08:51;;;;;;;26.13;14.08;;;;;;;17.27;47.37;99281.41;714139;1199;114210;-77
2021/04/29 13:24:16;;;;;;;53.55;30.25;;;;;;;17.05;49.49;99292.20;714069;1199;114718;-76
2021/04/29 13:39:40;;;;;;;98.07;75.13;;;;;;;15.90;54.73;99302.51;714511;1200;114169;-77
2021/04/29 13:55:01;;;;;;;45.87;29.07;;;;;;;15.20;62.78;99292.59;714864;1177;114671;-78
2021/04/29 14:10:22;;;;;;;86.23;50.70;;;;;;;14.52;71.19;99292.89;714343;1174;114873;-77
2021/04/29 14:25:43;;;;;;;77.07;44.67;;;;;;;14.10;78.80;99291.75;714530;1199;114109;-76
2021/04/29 14:41:04;;;;;;;196.15;93.63;;;;;;;13.98;81.12;99291.39;714351;1200;114472;-77
2021/04/29 14:56:25;;;;;;;144.03;96.30;;;;;;;13.65;86.59;99257.46;714749;1199;114880;-77
2021/04/29 15:11:45;;;;;;;121.43;65.57;;;;;;;13.63;87.05;99248.91;714391;1199;114501;-78
2021/04/29 15:27:05;;;;;;;183.88;88.42;;;;;;;13.47;93.45;99228.81;714361;1203;115166;-76
2021/04/29 15:42:28;;;;;;;489.45;225.83;;;;;;;13.29;96.63;99205.43;714280;1200;115630;-76
2021/04/29 15:57:49;;;;;;;142.53;67.20;;;;;;;13.13;99.18;99188.78;714307;1199;114714;-77
2021/04/29 16:13:09;;;;;;;224.68;86.70;;;;;;;12.99;100.00;99181.66;714653;1204;115286;-77
2021/04/29 16:28:29;;;;;;;166.28;70.78;;;;;;;12.75;100.00;99164.27;714381;1200;114947;-81
2021/04/29 16:43:54;;;;;;;84.17;42.30;;;;;;;12.72;100.00;99168.07;715009;1200;114860;-76
2021/04/29 16:59:15;;;;;;;222.83;87.70;;;;;;;12.63;100.00;99153.34;726658;1199;114520;-83
2021/04/29 17:14:35;;;;;;;215.93;90.83;;;;;;;12.57;100.00;99139.05;720918;1200;115533;-81
2021/04/29 17:29:56;;;;;;;184.70;77.17;;;;;;;12.68;100.00;99150.97;719206;1200;114098;-81
2021/04/29 17:45:20;;;;;;;76.70;40.60;;;;;;;12.71;100.00;99139.28;714773;1200;114875;-81
2021/04/29 18:00:41;;;;;;;89.67;42.25;;;;;;;12.53;100.00;99136.97;714991;1176;114098;-82
2021/04/29 18:16:02;;;;;;;34.65;22.03;;;;;;;12.36;100.00;99116.03;714637;1184;114093;-78
2021/04/29 18:31:23;;;;;;;89.83;47.20;;;;;;;12.31;100.00;99140.23;714845;1200;114788;-78
2021/04/29 18:46:45;;;;;;;129.60;55.55;;;;;;;12.22;100.00;99156.22;714578;1202;115331;-79
2021/04/29 19:02:05;;;;;;;118.00;51.63;;;;;;;12.08;100.00;99148.09;714815;1201;115304;-80
2021/04/29 19:17:27;;;;;;;80.57;37.60;;;;;;;11.97;100.00;99159.00;714510;1205;114902;-79
2021/04/29 19:32:51;;;;;;;38.90;23.30;;;;;;;11.95;100.00;99164.41;714596;1200;114636;-78
2021/04/29 19:48:11;;;;;;;46.33;24.98;;;;;;;12.08;100.00;99163.86;716840;1200;115513;-77
2021/04/29 20:03:32;;;;;;;39.93;23.60;;;;;;;11.99;100.00;99160.44;714542;1199;115388;-78
2021/04/29 20:18:52;;;;;;;48.47;26.47;;;;;;;11.82;100.00;99157.06;714868;1203;114142;-78
2021/04/29 20:34:13;;;;;;;46.08;28.20;;;;;;;11.60;100.00;99149.90;714997;1200;114289;-79
2021/04/29 20:49:34;;;;;;;48.53;24.90;;;;;;;11.37;100.00;99169.00;714879;1200;115714;-79
2021/04/29 21:04:54;;;;;;;55.33;28.45;;;;;;;11.21;100.00;99180.36;714902;1200;115804;-78
2021/04/29 21:20:14;;;;;;;57.87;31.23;;;;;;;11.13;100.00;99190.88;715566;1178;114844;-78
2021/04/29 21:35:35;;;;;;;68.58;37.83;;;;;;;10.85;100.00;99185.13;715018;1200;114962;-79
2021/04/29 21:50:57;;;;;;;55.17;34.43;;;;;;;10.63;100.00;99192.67;714959;1200;114137;-79
2021/04/29 22:06:22;;;;;;;49.95;25.58;;;;;;;10.63;100.00;99192.67;714759;1200;115591;-79
2021/04/29 22:21:42;;;;;;;61.95;31.03;;;;;;;10.29;100.00;99238.11;714912;1199;114835;-79
2021/04/29 22:37:03;;;;;;;58.17;31.00;;;;;;;10.33;100.00;99228.95;714491;1199;117827;-79
2021/04/29 22:52:24;;;;;;;61.35;31.43;;;;;;;10.78;100.00;99208.58;714808;1200;115349;-79
2021/04/29 23:07:45;;;;;;;49.30;27.50;;;;;;;11.02;100.00;99189.41;714982;1175;115249;-78
2021/04/29 23:23:05;;;;;;;48.07;27.30;;;;;;;11.14;100.00;99187.27;714599;1175;115974;-80
2021/04/29 23:38:25;;;;;;;45.60;26.53;;;;;;;11.22;100.00;99224.01;715658;1199;115641;-80
2021/04/29 23:53:46;;;;;;;50.80;28.73;;;;;;;11.08;100.00;99190.55;714677;1180;116089;-78
